La Selva Beach, California
Current Conditions -  °F | °C
As of 5:53 PM on Saturday 25 Oct 2014 (Local Time) from KWVI Reporting Station
Clear Clear  
Wind Chill: 65°   Ceiling: Unl
Heat Index: 65°   Visibility: 10mi
Dew Point: 59°   Wind: 6mph
Humidity: 81%   Direction: 240°WSW
Pressure: 30.09"   Gusts: NA
Location:  36.9274°N, 121.747°W
Report Text: KWVI 260053Z AUTO 24005KT 10SM CLR 18/15 A3009 RMK AO2 SLP190 T01830150
Loading
Personal Weather Stations






























Interactive Weather Map
Tropical Storm Tracking
New forecast layout! Learn more

10-Day Weather Forecast

Advertisements
Track Severe Weather on mobile